Time;durP1;ratioP1;P1;durP2;ratioP2;P2;SDS_P1;SDS_P2;PMS_P1;PMS_P2;Temp;Humidity;BMP_temperature;BMP_pressure;BME280_temperature;BME280_humidity;BME280_pressure;Samples;Min_cycle;Max_cycle;Signal;HPM_P1;HPM_P2
2021/12/15 00:01:58;;;;;;;;;57.00;42.33;;;;;8.42;100.00;102802.88;4885218;29;44809;-79
2021/12/15 00:04:24;;;;;;;;;51.00;42.33;;;;;8.42;100.00;102802.03;4887492;29;44730;-80
2021/12/15 00:06:49;;;;;;;;;53.00;41.00;;;;;8.46;100.00;102798.34;4885370;29;45581;-80
2021/12/15 00:09:15;;;;;;;;;53.00;43.00;;;;;8.46;100.00;102795.72;4882671;29;45432;-80
2021/12/15 00:11:41;;;;;;;;;49.00;41.33;;;;;8.48;100.00;102789.47;4882375;29;44818;-80
2021/12/15 00:14:11;;;;;;;;;54.33;44.33;;;;;8.52;100.00;102784.13;4881568;29;45500;-80
2021/12/15 00:16:37;;;;;;;;;59.00;42.67;;;;;8.52;100.00;102792.94;4882443;29;45314;-81
2021/12/15 00:19:05;;;;;;;;;53.33;42.33;;;;;8.52;100.00;102781.47;4882059;29;45249;-80
2021/12/15 00:21:31;;;;;;;;;56.00;43.67;;;;;8.51;100.00;102780.59;4882341;29;45400;-81
2021/12/15 00:23:57;;;;;;;;;55.33;40.67;;;;;8.50;100.00;102776.19;4882091;29;45548;-80
2021/12/15 00:26:24;;;;;;;;;55.33;42.67;;;;;8.51;100.00;102783.25;4883234;29;45366;-81
2021/12/15 00:28:50;;;;;;;;;52.00;42.00;;;;;8.50;100.00;102782.34;4888411;29;45554;-79
2021/12/15 00:31:16;;;;;;;;;53.00;40.67;;;;;8.50;100.00;102787.66;4881519;29;44849;-80
2021/12/15 00:33:43;;;;;;;;;53.00;42.33;;;;;8.52;100.00;102784.13;4882508;29;45251;-80
2021/12/15 00:36:10;;;;;;;;;52.00;39.67;;;;;8.52;100.00;102786.78;4882202;29;45525;-80
2021/12/15 00:38:35;;;;;;;;;52.33;42.33;;;;;8.51;100.00;102775.31;4882181;29;45284;-80
2021/12/15 00:41:01;;;;;;;;;54.00;44.00;;;;;8.50;100.00;102784.13;4881756;29;45320;-80
2021/12/15 00:43:27;;;;;;;;;49.00;41.00;;;;;8.45;100.00;102786.03;4881825;29;44851;-80
2021/12/15 00:45:53;;;;;;;;;52.33;40.33;;;;;8.47;100.00;102777.16;4885040;29;45375;-80
2021/12/15 00:48:19;;;;;;;;;51.00;39.00;;;;;8.48;100.00;102780.66;4887300;29;45157;-80
2021/12/15 00:50:46;;;;;;;;;50.00;37.00;;;;;8.46;100.00;102787.75;4890927;29;44725;-79
2021/12/15 00:53:13;;;;;;;;;51.67;39.67;;;;;8.45;100.00;102788.69;4888407;29;44839;-79
2021/12/15 00:55:41;;;;;;;;;48.67;38.67;;;;;8.47;100.00;102773.63;4882272;29;45307;-80
2021/12/15 00:58:07;;;;;;;;;51.33;39.33;;;;;8.46;100.00;102772.78;4880223;29;45231;-80
2021/12/15 01:00:41;;;;;;;;;57.67;42.00;;;;;8.48;100.00;102784.19;4881746;29;44820;-80
2021/12/15 01:03:07;;;;;;;;;53.33;41.33;;;;;8.50;100.00;102776.19;4882453;29;44833;-80
2021/12/15 01:05:37;;;;;;;;;53.00;41.00;;;;;8.51;100.00;102783.25;4883942;29;44739;-80
2021/12/15 01:08:07;;;;;;;;;52.33;38.33;;;;;8.53;100.00;102770.81;4885306;29;45390;-80
2021/12/15 01:21:39;;;;;;;;;54.67;44.67;;;;;8.52;100.00;102778.81;4860307;29;44847;-79
2021/12/15 01:24:05;;;;;;;;;48.00;40.00;;;;;8.53;100.00;102778.78;4860216;29;44835;-79
2021/12/15 01:26:30;;;;;;;;;56.67;44.00;;;;;8.53;100.00;102783.19;4860018;29;45307;-80
2021/12/15 01:28:57;;;;;;;;;54.33;40.67;;;;;8.52;100.00;102781.47;4859712;29;45002;-80
2021/12/15 01:31:23;;;;;;;;;52.00;40.00;;;;;8.53;100.00;102775.25;4860572;29;45453;-79
2021/12/15 01:33:48;;;;;;;;;54.67;41.67;;;;;8.55;100.00;102773.41;4861355;29;45338;-79
2021/12/15 01:36:14;;;;;;;;;50.33;40.67;;;;;8.56;100.00;102772.50;4864883;29;45502;-79
2021/12/15 01:38:43;;;;;;;;;53.33;42.00;;;;;8.54;100.00;102771.69;4862387;29;45541;-79
2021/12/15 01:41:19;;;;;;;;;54.00;39.67;;;;;8.55;100.00;102769.00;4859244;29;44770;-80
2021/12/15 01:46:52;;;;;;;;;53.00;44.00;;;;;8.58;100.00;102768.94;4859237;29;44861;-80
2021/12/15 01:46:56;;;;;;;;;51.67;41.67;;;;;8.58;100.00;102771.56;4859924;29;45508;-79
2021/12/15 01:49:44;;;;;;;;;49.33;39.67;;;;;8.58;100.00;102768.94;4859847;29;45542;-79
2021/12/15 01:52:29;;;;;;;;;47.67;40.67;;;;;8.59;100.00;102780.38;4859178;29;44812;-79
2021/12/15 01:55:03;;;;;;;;;51.00;39.33;;;;;8.56;100.00;102778.69;4859388;29;44730;-80
2021/12/15 01:57:31;;;;;;;;;51.67;39.00;;;;;8.55;100.00;102778.72;4859899;29;44855;-79
2021/12/15 01:59:59;;;;;;;;;45.33;37.33;;;;;8.55;100.00;102784.03;4881489;29;45378;-79
2021/12/15 02:02:25;;;;;;;;;53.00;41.00;;;;;8.55;100.00;102786.66;4886042;29;45502;-78
2021/12/15 02:04:51;;;;;;;;;51.67;38.67;;;;;8.56;100.00;102788.41;4883840;29;45249;-79
2021/12/15 02:07:19;;;;;;;;;53.00;42.33;;;;;8.56;100.00;102789.31;4884489;29;44782;-79
2021/12/15 02:12:28;;;;;;;;;57.33;43.00;;;;;8.53;100.00;102794.66;4883571;29;44657;-79
2021/12/15 02:14:55;;;;;;;;;48.33;39.67;;;;;8.53;100.00;102799.09;4882461;29;44733;-79
2021/12/15 02:17:22;;;;;;;;;50.00;40.00;;;;;8.53;100.00;102802.63;4880845;29;44719;-79
2021/12/15 02:19:48;;;;;;;;;52.33;41.33;;;;;8.52;100.00;102800.00;4880974;29;45368;-79
2021/12/15 02:22:14;;;;;;;;;54.00;38.33;;;;;8.53;100.00;102799.09;4880673;29;45119;-79
2021/12/15 02:24:42;;;;;;;;;48.00;41.00;;;;;8.52;100.00;102802.66;4880883;29;45493;-79
2021/12/15 02:27:11;;;;;;;;;51.00;40.00;;;;;8.54;100.00;102808.78;4883091;29;44877;-77
2021/12/15 02:29:40;;;;;;;;;51.00;37.67;;;;;8.51;100.00;102809.75;4881404;29;45196;-79
2021/12/15 02:37:20;;;;;;;;;44.67;39.33;;;;;8.50;100.00;102802.69;4880693;29;45362;-79
2021/12/15 02:40:04;;;;;;;;;48.00;39.00;;;;;8.51;100.00;102804.44;4879364;29;45572;-78
2021/12/15 02:42:36;;;;;;;;;57.67;42.67;;;;;8.53;100.00;102812.34;4880438;29;44666;-79
2021/12/15 02:47:43;;;;;;;;;49.33;39.33;;;;;8.53;100.00;102801.75;4847114;29;46746;-80
2021/12/15 02:50:12;;;;;;;;;52.00;38.67;;;;;8.52;100.00;102802.66;4892252;29;45093;-78
2021/12/15 02:52:38;;;;;;;;;48.33;35.33;;;;;8.53;100.00;102802.63;4911838;29;45237;-80
2021/12/15 02:55:06;;;;;;;;;49.67;39.00;;;;;8.50;100.00;102792.94;4894833;29;45262;-79
2021/12/15 02:57:32;;;;;;;;;46.67;37.67;;;;;8.47;100.00;102794.81;4867254;29;44840;-79
2021/12/15 03:00:04;;;;;;;;;52.67;40.00;;;;;8.46;100.00;102801.91;4884387;29;45017;-78
2021/12/15 03:05:25;;;;;;;;;49.33;38.67;;;;;8.45;100.00;102800.13;4902821;29;45309;-79
2021/12/15 03:08:03;;;;;;;;;49.67;38.33;;;;;8.44;100.00;102803.69;4901826;29;45204;-79
2021/12/15 03:15:57;;;;;;;;;52.67;40.33;;;;;8.45;100.00;102793.97;4903074;29;44858;-79
2021/12/15 03:18:25;;;;;;;;;52.67;39.67;;;;;8.46;100.00;102803.66;4903697;29;44849;-79
2021/12/15 03:21:24;;;;;;;;;51.00;38.00;;;;;8.46;100.00;102796.59;4889287;29;45488;-79
2021/12/15 03:24:01;;;;;;;;;47.00;39.67;;;;;8.49;100.00;102796.50;4889739;29;44791;-79
2021/12/15 03:26:40;;;;;;;;;47.00;37.67;;;;;8.52;100.00;102805.31;4866389;29;44726;-79
2021/12/15 03:37:10;;;;;;;;;50.33;40.67;;;;;8.52;100.00;102808.81;4883220;29;45357;-80
2021/12/15 03:39:44;;;;;;;;;50.33;37.67;;;;;8.49;100.00;102803.59;4883038;29;44839;-79
2021/12/15 03:42:11;;;;;;;;;49.67;39.00;;;;;8.48;100.00;102799.22;4882908;29;45085;-80
2021/12/15 03:44:40;;;;;;;;;45.67;37.00;;;;;8.45;100.00;102802.78;4882848;29;45451;-79
2021/12/15 03:47:10;;;;;;;;;46.33;35.00;;;;;8.42;100.00;102808.19;4884812;29;45375;-79
2021/12/15 03:49:36;;;;;;;;;50.67;38.00;;;;;8.43;100.00;102809.91;4902075;29;45393;-79
2021/12/15 03:52:04;;;;;;;;;50.00;39.67;;;;;8.44;100.00;102816.94;4902111;29;46284;-79
2021/12/15 03:54:29;;;;;;;;;39.67;35.33;;;;;8.45;100.00;102807.22;4906394;29;44726;-78
2021/12/15 03:56:55;;;;;;;;;51.67;39.33;;;;;8.45;100.00;102813.38;4914965;29;44807;-78
2021/12/15 03:59:23;;;;;;;;;51.00;39.00;;;;;8.46;100.00;102812.50;4907412;29;45387;-77
2021/12/15 04:01:48;;;;;;;;;45.00;35.33;;;;;8.45;100.00;102810.72;4906691;29;45317;-79
2021/12/15 04:04:14;;;;;;;;;45.33;37.67;;;;;8.46;100.00;102816.91;4902846;29;44880;-78
2021/12/15 04:06:40;;;;;;;;;48.33;39.67;;;;;8.45;100.00;102813.38;4902077;29;45272;-78
2021/12/15 04:09:10;;;;;;;;;48.67;38.00;;;;;8.46;100.00;102820.44;4901976;29;45448;-78
2021/12/15 04:11:36;;;;;;;;;43.00;35.00;;;;;8.44;100.00;102811.66;4902094;29;45640;-80
2021/12/15 04:14:08;;;;;;;;;45.33;38.00;;;;;8.46;100.00;102807.19;4900843;29;44751;-79
2021/12/15 04:19:03;;;;;;;;;48.33;39.00;;;;;8.47;100.00;102805.41;4902287;29;45330;-80
2021/12/15 04:21:29;;;;;;;;;45.67;36.33;;;;;8.48;100.00;102804.50;4903203;29;45437;-79
2021/12/15 04:23:57;;;;;;;;;49.00;38.00;;;;;8.46;100.00;102798.34;4899713;29;45374;-79
2021/12/15 04:26:24;;;;;;;;;45.67;38.00;;;;;8.47;100.00;102803.63;4902056;29;45509;-80
2021/12/15 04:28:51;;;;;;;;;45.00;37.00;;;;;8.48;100.00;102802.72;4904190;29;45251;-80
2021/12/15 04:31:20;;;;;;;;;45.67;37.33;;;;;8.49;100.00;102803.59;4910102;29;45038;-80
2021/12/15 04:33:55;;;;;;;;;49.33;38.67;;;;;8.49;100.00;102806.25;4902390;29;44805;-79
2021/12/15 04:36:25;;;;;;;;;52.00;37.67;;;;;8.48;100.00;102793.91;4902081;29;44815;-79
2021/12/15 04:38:52;;;;;;;;;48.00;38.00;;;;;8.48;100.00;102805.38;4901618;29;44817;-79
2021/12/15 04:41:19;;;;;;;;;52.67;40.33;;;;;8.46;100.00;102804.56;4901128;29;45415;-79
2021/12/15 04:43:55;;;;;;;;;45.67;37.33;;;;;8.47;100.00;102803.63;4883628;29;44782;-78
2021/12/15 04:46:23;;;;;;;;;48.67;40.00;;;;;8.46;100.00;102799.25;4899328;29;44852;-84
2021/12/15 04:48:48;;;;;;;;;42.33;32.33;;;;;8.46;100.00;102807.19;4881386;29;44781;-80
2021/12/15 04:51:14;;;;;;;;;45.33;38.33;;;;;8.46;100.00;102808.94;4865300;29;46840;-80
2021/12/15 04:53:42;;;;;;;;;49.00;39.33;;;;;8.46;100.00;102809.84;4885282;29;45233;-79
2021/12/15 04:56:08;;;;;;;;;45.00;37.33;;;;;8.48;100.00;102812.44;4885492;29;44909;-80
2021/12/15 04:58:35;;;;;;;;;44.33;37.00;;;;;8.48;100.00;102815.09;4887226;29;44873;-82
2021/12/15 05:01:07;;;;;;;;;51.33;38.33;;;;;8.44;100.00;102814.28;4876521;29;45202;-82
2021/12/15 05:03:32;;;;;;;;;46.33;33.33;;;;;8.47;100.00;102813.38;4875371;29;44764;-80
2021/12/15 05:05:58;;;;;;;;;46.67;38.67;;;;;8.46;100.00;102817.78;4891255;29;44843;-80
2021/12/15 05:08:24;;;;;;;;;45.33;35.33;;;;;8.47;100.00;102821.31;4891294;29;44947;-80
2021/12/15 05:10:50;;;;;;;;;45.33;37.33;;;;;8.46;100.00;102817.78;4885054;29;46868;-81
2021/12/15 05:13:16;;;;;;;;;41.00;35.67;;;;;8.48;100.00;102826.56;4887272;29;45267;-80
2021/12/15 05:15:42;;;;;;;;;48.00;37.67;;;;;8.52;100.00;102827.38;4887291;29;44686;-81
2021/12/15 05:18:08;;;;;;;;;47.67;37.33;;;;;8.52;100.00;102829.16;4890672;29;45041;-80
2021/12/15 05:20:36;;;;;;;;;42.00;34.33;;;;;8.55;100.00;102829.91;4892728;29;46868;-79
2021/12/15 05:23:03;;;;;;;;;45.00;34.67;;;;;8.54;100.00;102827.31;4891855;29;44752;-79
2021/12/15 05:25:29;;;;;;;;;39.67;35.33;;;;;8.50;100.00;102824.72;4889754;29;44792;-80
2021/12/15 05:27:55;;;;;;;;;47.00;35.00;;;;;8.53;100.00;102831.75;4873074;29;44855;-79
2021/12/15 05:30:21;;;;;;;;;38.00;34.00;;;;;8.54;100.00;102835.25;4888840;29;45349;-80
2021/12/15 05:32:47;;;;;;;;;42.67;34.00;;;;;8.53;100.00;102831.75;4890022;29;45308;-80
2021/12/15 05:35:21;;;;;;;;;38.67;34.00;;;;;8.51;100.00;102830.94;4889559;29;44777;-82
2021/12/15 05:37:48;;;;;;;;;38.67;32.33;;;;;8.51;100.00;102838.88;4890785;29;44769;-83
2021/12/15 05:40:14;;;;;;;;;28.00;26.33;;;;;8.52;100.00;102834.44;4888771;29;45281;-83
2021/12/15 05:42:40;;;;;;;;;39.67;33.33;;;;;8.55;100.00;102842.28;4889068;29;44846;-82
2021/12/15 05:45:06;;;;;;;;;46.00;35.00;;;;;8.50;100.00;102837.97;4890183;29;44708;-83
2021/12/15 05:47:32;;;;;;;;;37.00;32.33;;;;;8.50;100.00;102837.13;4877388;29;44876;-82
2021/12/15 05:50:07;;;;;;;;;33.25;29.75;;;;;8.53;100.00;102841.47;4900380;29;44901;-80
2021/12/15 05:52:39;;;;;;;;;31.25;31.00;;;;;8.53;100.00;102841.47;4882444;29;45295;-81
2021/12/15 05:55:06;;;;;;;;;28.67;28.67;;;;;8.58;100.00;102844.88;4883155;29;45325;-79
2021/12/15 05:57:32;;;;;;;;;33.75;30.50;;;;;8.57;100.00;102843.16;4902124;29;45285;-83
2021/12/15 05:59:59;;;;;;;;;31.50;27.00;;;;;8.56;100.00;102844.94;4885452;29;47037;-80
2021/12/15 06:02:27;;;;;;;;;28.00;23.25;;;;;8.59;100.00;102850.13;4890412;29;44870;-81
2021/12/15 06:05:01;;;;;;;;;35.00;31.67;;;;;8.59;100.00;102849.25;4890100;29;45247;-81
2021/12/15 06:07:26;;;;;;;;;38.00;32.00;;;;;8.59;100.00;102846.63;4889636;29;45444;-83
2021/12/15 06:09:52;;;;;;;;;39.67;33.67;;;;;8.58;100.00;102856.34;4903583;29;45636;-87
2021/12/15 06:12:17;;;;;;;;;35.67;30.00;;;;;8.59;100.00;102852.78;4904551;29;44813;-83
2021/12/15 06:14:49;;;;;;;;;40.00;28.67;;;;;8.63;100.00;102854.47;4889224;29;45509;-83
2021/12/15 06:17:14;;;;;;;;;37.00;30.00;;;;;8.65;100.00;102860.56;4905729;29;44772;-82
2021/12/15 06:19:47;;;;;;;;;34.50;28.75;;;;;8.61;100.00;102864.22;4886578;29;45272;-84
2021/12/15 06:22:19;;;;;;;;;34.25;27.50;;;;;8.62;100.00;102870.41;4901838;29;45530;-83
2021/12/15 06:24:45;;;;;;;;;33.50;30.75;;;;;8.58;100.00;102859.00;4886042;29;44810;-83
2021/12/15 06:27:18;;;;;;;;;37.50;33.25;;;;;8.60;100.00;102869.53;4890393;29;44858;-86
2021/12/15 06:29:44;;;;;;;;;36.00;28.75;;;;;8.66;100.00;102872.06;4889017;29;46793;-85
2021/12/15 06:32:09;;;;;;;;;28.50;25.00;;;;;8.64;100.00;102865.91;4891977;29;45524;-85
2021/12/15 06:34:35;;;;;;;;;31.00;26.00;;;;;8.63;100.00;102867.69;4889367;29;45347;-83
2021/12/15 06:37:01;;;;;;;;;35.25;28.75;;;;;8.63;100.00;102870.34;4906505;29;45594;-84
2021/12/15 06:39:27;;;;;;;;;33.25;28.75;;;;;8.68;100.00;102875.53;4904296;29;45193;-85
2021/12/15 06:41:52;;;;;;;;;34.75;29.25;;;;;8.69;100.00;102885.22;4901610;29;46143;-84
2021/12/15 06:44:18;;;;;;;;;36.00;28.25;;;;;8.70;100.00;102879.00;4900737;29;45757;-83
2021/12/15 06:47:17;;;;;;;;;26.75;25.25;;;;;8.71;100.00;102871.03;4884710;29;45261;-84
2021/12/15 07:00:31;;;;;;;;;32.25;29.00;;;;;8.70;100.00;102892.25;4903288;29;45057;-83
2021/12/15 07:02:58;;;;;;;;;29.00;26.75;;;;;8.71;100.00;102891.38;4904109;29;45482;-84
2021/12/15 07:05:25;;;;;;;;;30.33;27.67;;;;;8.70;100.00;102893.16;4905109;29;45581;-83
2021/12/15 07:07:52;;;;;;;;;27.33;23.67;;;;;8.71;100.00;102892.25;4889142;29;44849;-83
2021/12/15 07:10:23;;;;;;;;;31.33;29.67;;;;;8.71;100.00;102889.59;4893040;29;47547;-83
2021/12/15 07:12:50;;;;;;;;;28.00;26.33;;;;;8.72;100.00;102895.75;4909541;29;44778;-83
2021/12/15 07:15:17;;;;;;;;;30.67;27.33;;;;;8.71;100.00;102894.03;4892798;29;44801;-85
2021/12/15 07:17:50;;;;;;;;;33.00;25.25;;;;;8.71;100.00;102896.66;4890176;29;45287;-84
2021/12/15 07:23:14;;;;;;;;;27.25;25.00;;;;;8.72;100.00;102906.34;4900922;29;44696;-84
2021/12/15 07:25:42;;;;;;;;;29.75;23.50;;;;;8.74;100.00;102909.81;4883431;29;44850;-84
2021/12/15 07:28:09;;;;;;;;;26.50;24.50;;;;;8.71;100.00;102913.44;4883351;29;45418;-83
2021/12/15 07:30:37;;;;;;;;;27.75;25.75;;;;;8.69;100.00;102911.72;4886534;29;45281;-85
2021/12/15 07:33:04;;;;;;;;;24.75;22.75;;;;;8.72;100.00;102912.53;4909277;29;44838;-83
2021/12/15 07:35:29;;;;;;;;;19.25;15.75;;;;;8.73;100.00;102911.59;4910522;29;44814;-84
2021/12/15 07:37:55;;;;;;;;;26.00;22.75;;;;;8.73;100.00;102921.34;4893001;29;44853;-84
2021/12/15 07:40:24;;;;;;;;;28.50;24.50;;;;;8.74;100.00;102915.13;4874462;29;46791;-83
2021/12/15 07:42:56;;;;;;;;;31.25;27.75;;;;;8.78;100.00;102922.09;4915517;29;44813;-83
2021/12/15 07:45:26;;;;;;;;;34.00;30.00;;;;;8.79;100.00;102926.47;4900960;29;44766;-83
2021/12/15 07:47:54;;;;;;;;;33.67;28.67;;;;;8.80;100.00;102930.91;4898620;29;44894;-83
2021/12/15 07:50:20;;;;;;;;;31.00;28.00;;;;;8.81;100.00;102937.06;4900899;29;45570;-84
2021/12/15 07:52:51;;;;;;;;;34.25;30.00;;;;;8.80;100.00;102937.97;4907611;29;44858;-85
2021/12/15 07:55:20;;;;;;;;;32.75;22.00;;;;;8.84;100.00;102931.69;4902595;29;45398;-83
2021/12/15 07:57:47;;;;;;;;;31.67;30.33;;;;;8.85;100.00;102938.72;4900291;29;45413;-84
2021/12/15 08:00:16;;;;;;;;;35.00;29.00;;;;;8.86;100.00;102938.69;4868521;29;45450;-83
2021/12/15 08:02:42;;;;;;;;;36.00;31.00;;;;;8.89;100.00;102948.34;4897815;29;44816;-84
2021/12/15 08:05:08;;;;;;;;;31.25;29.75;;;;;8.89;100.00;102935.94;4884310;29;45391;-84
2021/12/15 08:07:33;;;;;;;;;38.67;29.00;;;;;8.92;100.00;102937.66;4883902;29;45561;-84
2021/12/15 08:09:59;;;;;;;;;32.67;28.67;;;;;8.94;100.00;102943.78;4883820;29;45173;-84
2021/12/15 08:12:28;;;;;;;;;33.00;27.67;;;;;8.97;100.00;102941.94;4870925;29;44824;-84
2021/12/15 08:14:54;;;;;;;;;32.25;26.50;;;;;9.00;100.00;102941.88;4891155;29;45386;-84
2021/12/15 08:17:21;;;;;;;;;33.67;31.33;;;;;9.02;100.00;102944.47;4904752;29;45001;-84
2021/12/15 08:19:46;;;;;;;;;35.00;31.33;;;;;9.06;100.00;102950.59;4869079;29;45096;-84
2021/12/15 08:22:12;;;;;;;;;75.33;58.67;;;;;9.11;100.00;102946.03;4857128;29;45248;-84
2021/12/15 08:24:37;;;;;;;;;62.00;47.00;;;;;9.14;100.00;102954.78;4875124;29;44726;-84
2021/12/15 08:27:03;;;;;;;;;45.67;35.00;;;;;9.18;100.00;102956.44;4891496;29;44818;-84
2021/12/15 08:29:29;;;;;;;;;41.67;35.33;;;;;9.21;100.00;102944.88;4891075;29;45206;-84
2021/12/15 08:31:54;;;;;;;;;37.67;33.00;;;;;9.24;100.00;102945.69;4897877;29;45318;-83
2021/12/15 08:34:19;;;;;;;;;41.67;35.33;;;;;9.26;100.00;102940.34;4866132;29;45368;-83
2021/12/15 08:36:49;;;;;;;;;36.00;32.67;;;;;9.30;100.00;102949.09;4885083;29;45279;-84
2021/12/15 08:39:15;;;;;;;;;39.00;35.33;;;;;9.37;100.00;102955.97;4886114;29;45235;-83
2021/12/15 08:41:41;;;;;;;;;33.67;30.00;;;;;9.43;100.00;102956.69;4883760;29;45196;-83
2021/12/15 08:44:08;;;;;;;;;43.67;34.33;;;;;9.49;100.00;102951.22;4868011;29;44721;-84
2021/12/15 08:46:42;;;;;;;;;43.33;35.00;;;;;9.53;100.00;102955.53;4890321;29;44925;-84
2021/12/15 08:49:10;;;;;;;;;43.67;36.00;;;;;9.57;100.00;102947.47;4885610;29;46916;-84
2021/12/15 08:51:36;;;;;;;;;36.67;32.67;;;;;9.56;100.00;102943.94;4906095;29;45472;-84
2021/12/15 08:54:09;;;;;;;;;33.00;30.33;;;;;9.59;100.00;102957.16;4910463;29;45342;-84
2021/12/15 08:56:36;;;;;;;;;30.50;29.25;;;;;9.61;100.00;102954.44;4893934;29;44825;-83
2021/12/15 08:59:04;;;;;;;;;43.67;33.67;;;;;9.66;100.00;102952.53;4905739;29;45093;-83
2021/12/15 09:01:29;;;;;;;;;27.00;24.33;;;;;9.70;100.00;102949.75;4890611;29;45515;-83
2021/12/15 09:03:55;;;;;;;;;36.33;30.67;;;;;9.77;100.00;102953.13;4908592;29;44803;-83
2021/12/15 09:06:21;;;;;;;;;36.00;32.00;;;;;9.83;100.00;102958.25;4908368;29;44976;-84
2021/12/15 09:08:47;;;;;;;;;44.00;32.50;;;;;9.85;100.00;102961.72;4904046;29;45311;-83
2021/12/15 09:11:16;;;;;;;;;33.50;30.00;;;;;9.89;100.00;102957.22;4902296;29;44788;-82
2021/12/15 09:13:44;;;;;;;;;38.25;29.25;;;;;9.95;100.00;102962.31;4902297;29;45455;-83
2021/12/15 09:16:12;;;;;;;;;34.00;31.00;;;;;10.02;100.00;102966.56;4903965;29;45353;-83
2021/12/15 09:18:43;;;;;;;;;34.75;31.25;;;;;10.10;100.00;102964.53;4889227;29;45730;-86
2021/12/15 09:21:11;;;;;;;;;33.25;30.25;;;;;10.19;100.00;102966.06;4889631;29;45317;-83
2021/12/15 09:23:37;;;;;;;;;39.25;30.00;;;;;10.22;100.00;102958.88;4883788;29;45426;-85
2021/12/15 09:26:06;;;;;;;;;40.33;31.00;;;;;10.26;100.00;102965.88;4884271;29;45223;-84
2021/12/15 09:28:32;;;;;;;;;35.00;32.33;;;;;10.30;100.00;102964.00;4900489;29;45022;-84
2021/12/15 09:30:59;;;;;;;;;37.67;33.33;;;;;10.34;100.00;102970.06;4883656;29;45377;-82
2021/12/15 09:33:29;;;;;;;;;37.33;31.00;;;;;10.37;100.00;102967.34;4900965;29;44840;-85
2021/12/15 09:35:55;;;;;;;;;38.00;34.67;;;;;10.37;100.00;102968.22;4900858;29;45345;-84
2021/12/15 09:38:22;;;;;;;;;39.67;34.67;;;;;10.34;100.00;102968.28;4885512;29;45239;-83
2021/12/15 09:40:52;;;;;;;;;37.33;33.33;;;;;10.23;100.00;102965.94;4906128;29;45299;-84
2021/12/15 09:43:19;;;;;;;;;36.67;31.00;;;;;10.24;100.00;102969.47;4909786;29;44865;-84
2021/12/15 09:45:51;;;;;;;;;39.00;32.67;;;;;10.25;100.00;102966.81;4890056;29;45675;-84
2021/12/15 10:04:25;;;;;;;;;39.00;32.00;;;;;10.51;100.00;102967.78;4901254;29;45445;-84
2021/12/15 10:07:17;;;;;;;;;41.25;31.75;;;;;10.61;100.00;102968.38;4887049;29;44953;-84
2021/12/15 10:17:59;;;;;;;;;40.25;31.00;;;;;10.72;100.00;102980.41;4905815;29;44754;-83
2021/12/15 10:20:26;;;;;;;;;36.00;29.75;;;;;10.76;100.00;102984.72;4908914;29;45441;-83
2021/12/15 10:22:58;;;;;;;;;33.00;30.00;;;;;10.80;100.00;102978.38;4909868;29;44850;-83
2021/12/15 10:25:32;;;;;;;;;38.67;32.67;;;;;10.78;100.00;102974.91;4907307;29;44897;-83
2021/12/15 10:28:04;;;;;;;;;35.00;30.25;;;;;10.78;100.00;102969.59;4902600;29;45245;-84
2021/12/15 10:30:39;;;;;;;;;36.25;33.50;;;;;10.86;100.00;102971.13;4901145;29;45205;-83
2021/12/15 10:33:17;;;;;;;;;36.75;32.25;;;;;10.91;100.00;102975.38;4901233;29;45296;-83
2021/12/15 10:35:46;;;;;;;;;30.75;27.50;;;;;10.95;100.00;102978.81;4901211;29;44892;-85
2021/12/15 10:38:19;;;;;;;;;26.25;26.25;;;;;10.97;100.00;102969.84;4885393;29;45519;-84
2021/12/15 10:41:03;;;;;;;;;29.00;25.50;;;;;11.00;100.00;102975.06;4903497;29;45465;-84
2021/12/15 10:43:36;;;;;;;;;29.50;28.00;;;;;11.03;100.00;102960.81;4883238;29;44733;-84
2021/12/15 10:46:11;;;;;;;;;30.75;28.75;;;;;11.06;100.00;102969.53;4883670;29;45470;-84
2021/12/15 10:49:08;;;;;;;;;27.50;27.50;;;;;11.06;100.00;102963.34;4902123;29;44692;-84
2021/12/15 10:51:37;;;;;;;;;27.50;26.50;;;;;11.07;100.00;102958.00;4886362;29;46511;-84
2021/12/15 10:54:16;;;;;;;;;28.75;26.00;;;;;11.12;100.00;102963.19;4886423;29;45317;-84
2021/12/15 10:56:56;;;;;;;;;29.25;27.75;;;;;11.13;100.00;102961.38;4907140;29;44790;-85
2021/12/15 10:59:26;;;;;;;;;31.25;29.50;;;;;11.10;100.00;102956.16;4906026;29;44721;-83
2021/12/15 11:02:16;;;;;;;;;31.25;28.25;;;;;11.06;100.00;102955.38;4904233;29;45221;-83
2021/12/15 11:04:49;;;;;;;;;31.00;25.50;;;;;11.09;100.00;102949.97;4906475;29;44850;-84
2021/12/15 11:07:23;;;;;;;;;29.75;26.50;;;;;11.17;100.00;102955.00;4887361;29;45275;-84
2021/12/15 11:10:10;;;;;;;;;30.00;27.00;;;;;11.25;100.00;102958.28;4885188;29;44815;-84
2021/12/15 11:12:48;;;;;;;;;27.00;24.00;;;;;11.28;100.00;102948.41;4882406;29;46907;-84
2021/12/15 11:15:26;;;;;;;;;24.25;23.75;;;;;11.35;100.00;102953.53;4903844;29;45143;-82
2021/12/15 11:18:02;;;;;;;;;28.00;24.75;;;;;11.37;100.00;102952.56;4903845;29;45477;-85
2021/12/15 11:20:32;;;;;;;;;22.75;22.75;;;;;11.41;100.00;102950.63;4885590;29;44935;-83
2021/12/15 11:23:05;;;;;;;;;17.25;17.25;;;;;11.47;100.00;102953.97;4885162;29;46877;-85
2021/12/15 11:25:39;;;;;;;;;17.00;17.00;;;;;11.44;100.00;102943.41;4891527;29;45409;-85
2021/12/15 11:28:37;;;;;;;;;16.00;16.00;;;;;11.50;100.00;102959.16;4892740;29;45494;-85
2021/12/15 11:31:07;;;;;;;;;18.25;18.00;;;;;11.55;100.00;102943.03;4893587;29;45330;-84
2021/12/15 11:33:52;;;;;;;;;20.50;18.25;;;;;11.59;100.00;102942.88;4892995;29;46976;-85
2021/12/15 11:36:31;;;;;;;;;16.00;15.00;;;;;11.66;100.00;102935.56;4888282;29;45386;-83
2021/12/15 11:39:17;;;;;;;;;17.00;16.60;;;;;11.74;100.00;102945.91;4885290;29;45334;-86
2021/12/15 11:41:45;;;;;;;;;13.25;13.00;;;;;11.75;100.00;102935.22;4885561;29;44955;-83
2021/12/15 11:44:14;;;;;;;;;19.25;17.75;;;;;11.78;100.00;102942.22;4887068;29;47086;-84
2021/12/15 11:46:52;;;;;;;;;17.40;15.00;;;;;11.79;100.00;102930.63;4887616;29;44785;-84
2021/12/15 11:49:29;;;;;;;;;15.60;14.40;;;;;11.82;100.00;102928.75;4889346;29;44708;-84
2021/12/15 11:51:57;;;;;;;;;91.33;69.33;;;;;11.79;100.00;102933.28;4905175;29;44705;-84
2021/12/15 11:54:28;;;;;;;;;20.00;19.75;;;;;11.65;100.00;102924.94;4904909;29;45431;-84
2021/12/15 11:57:34;;;;;;;;;37.25;31.25;;;;;11.64;100.00;102925.88;4903658;29;45388;-85
2021/12/15 12:00:13;;;;;;;;;23.75;21.75;;;;;11.58;100.00;102934.94;4828113;29;44833;-85
2021/12/15 12:02:51;;;;;;;;;18.25;16.50;;;;;11.62;100.00;102928.59;4846111;29;44915;-84
2021/12/15 12:05:25;;;;;;;;;21.25;18.25;;;;;11.70;100.00;102930.97;4846258;29;46967;-86
2021/12/15 12:08:00;;;;;;;;;16.20;13.00;;;;;11.73;100.00;102920.22;4834897;29;44835;-85
2021/12/15 12:10:43;;;;;;;;;25.00;21.50;;;;;11.71;100.00;102922.94;4853148;29;45354;-82
2021/12/15 12:13:15;;;;;;;;;25.75;21.25;;;;;11.70;100.00;102917.66;4845797;29;44917;-83
2021/12/15 12:15:43;;;;;;;;;24.00;20.00;;;;;11.67;100.00;102926.63;4846211;29;45438;-85
2021/12/15 12:18:12;;;;;;;;;17.00;16.20;;;;;11.64;100.00;102920.53;4846760;29;44889;-85
2021/12/15 12:20:44;;;;;;;;;17.25;16.25;;;;;11.64;100.00;102916.09;4844556;29;45422;-84
2021/12/15 12:23:12;;;;;;;;;18.25;18.25;;;;;11.70;100.00;102921.22;4844897;29;45510;-84
2021/12/15 12:25:48;;;;;;;;;18.20;14.40;;;;;11.72;100.00;102921.16;4845184;29;45304;-83
2021/12/15 12:28:21;;;;;;;;;19.00;19.00;;;;;11.76;100.00;102917.44;4854638;29;45529;-84
2021/12/15 12:30:53;;;;;;;;;17.60;17.60;;;;;11.80;100.00;102919.06;4852699;29;45427;-85
2021/12/15 12:33:21;;;;;;;;;28.00;19.50;;;;;11.80;100.00;102921.75;4864420;29;44804;-84
2021/12/15 12:35:49;;;;;;;;;21.25;19.75;;;;;11.78;100.00;102913.78;4888723;29;47175;-84
2021/12/15 12:38:21;;;;;;;;;22.20;18.40;;;;;11.78;100.00;102911.13;4886685;29;45005;-84